Time;durP1;ratioP1;P1;durP2;ratioP2;P2;SDS_P1;SDS_P2;PMS_P1;PMS_P2;Temp;Humidity;BMP_temperature;BMP_pressure;BME280_temperature;BME280_humidity;BME280_pressure;Samples;Min_cycle;Max_cycle;Signal;HPM_P1;HPM_P2
2022/09/29 00:01:01;;;;;;;11.28;8.30;;;;;;;11.95;77.08;99312.03;1705191;82;21016;-72
2022/09/29 00:03:28;;;;;;;10.88;7.90;;;;;;;11.89;76.99;99316.64;1706607;82;21046;-71
2022/09/29 00:05:55;;;;;;;9.60;7.33;;;;;;;11.86;76.98;99310.31;1707202;82;21042;-72
2022/09/29 00:08:25;;;;;;;8.18;6.80;;;;;;;11.84;76.92;99310.97;1703094;82;21010;-72
2022/09/29 00:10:52;;;;;;;8.88;7.17;;;;;;;11.77;76.82;99313.37;1704415;83;22011;-71
2022/09/29 00:13:18;;;;;;;8.75;6.72;;;;;;;11.70;76.80;99317.14;1697939;83;21006;-71
2022/09/29 00:15:56;;;;;;;9.33;6.75;;;;;;;11.65;76.83;99318.58;1708032;83;21497;-72
2022/09/29 00:18:23;;;;;;;9.35;6.50;;;;;;;11.63;76.82;99322.70;1690729;84;21000;-75
2022/09/29 00:21:02;;;;;;;9.00;7.15;;;;;;;11.57;76.64;99324.63;1697009;82;21099;-72
2022/09/29 00:23:30;;;;;;;7.60;6.83;;;;;;;11.52;76.42;99331.38;1675087;84;21862;-71
2022/09/29 00:26:17;;;;;;;7.70;6.78;;;;;;;11.39;76.25;99331.30;1690874;83;21613;-71
2022/09/29 00:28:57;;;;;;;10.60;7.47;;;;;;;11.30;76.25;99335.34;1659709;84;21051;-72
2022/09/29 00:31:26;;;;;;;10.03;7.28;;;;;;;11.19;76.29;99341.66;1696925;83;21487;-72
2022/09/29 00:33:52;;;;;;;16.40;7.47;;;;;;;11.11;76.27;99346.40;1712996;83;20955;-72
2022/09/29 00:36:21;;;;;;;10.80;7.72;;;;;;;11.07;76.21;99352.95;1701383;83;22287;-72
2022/09/29 00:38:48;;;;;;;9.15;7.42;;;;;;;11.02;76.23;99367.61;1692390;84;21010;-72
2022/09/29 00:41:18;;;;;;;9.13;6.87;;;;;;;10.98;76.21;99364.90;1687844;84;21034;-72
2022/09/29 00:44:00;;;;;;;28.70;24.18;;;;;;;10.94;76.38;99372.30;1688742;84;21062;-72
2022/09/29 00:46:49;;;;;;;16.32;14.60;;;;;;;10.85;76.62;99374.02;1685772;83;20964;-72
2022/09/29 00:49:24;;;;;;;10.28;8.90;;;;;;;10.82;76.91;99376.97;1674634;85;22656;-72
2022/09/29 00:52:01;;;;;;;9.70;7.58;;;;;;;10.82;77.05;99383.57;1674370;85;21050;-72
2022/09/29 00:54:31;;;;;;;8.63;7.35;;;;;;;10.82;77.27;99385.38;1686312;83;21121;-72
2022/09/29 00:56:58;;;;;;;8.55;7.17;;;;;;;10.81;77.42;99389.01;1672737;85;21094;-72
2022/09/29 00:59:33;;;;;;;9.90;7.50;;;;;;;10.83;77.50;99393.64;1686001;85;21493;-72
2022/09/29 01:02:00;;;;;;;9.83;7.30;;;;;;;10.77;77.20;99397.69;1675574;85;21840;-72
2022/09/29 01:04:27;;;;;;;11.38;6.85;;;;;;;10.71;77.00;99396.12;1682705;85;20940;-72
2022/09/29 01:06:56;;;;;;;7.60;6.75;;;;;;;10.64;76.83;99401.17;1683871;85;21038;-72
2022/09/29 01:09:27;;;;;;;7.83;6.30;;;;;;;10.56;76.70;99399.25;1681116;83;21550;-72
2022/09/29 01:11:59;;;;;;;7.35;6.37;;;;;;;10.51;76.72;99401.48;1681340;85;20998;-72
2022/09/29 01:14:27;;;;;;;16.42;11.18;;;;;;;10.45;76.81;99398.61;1675226;85;22535;-72
2022/09/29 01:16:54;;;;;;;26.07;18.15;;;;;;;10.40;76.80;99400.34;1681691;85;21007;-72
2022/09/29 01:19:38;;;;;;;34.43;22.40;;;;;;;10.39;76.81;99401.81;1684624;84;21055;-72
2022/09/29 01:22:18;;;;;;;70.60;41.33;;;;;;;10.35;76.69;99399.14;1667251;85;21010;-72
2022/09/29 01:24:54;;;;;;;86.08;53.38;;;;;;;10.28;76.61;99401.02;1687199;83;21031;-72
2022/09/29 01:27:38;;;;;;;68.80;41.63;;;;;;;10.21;76.67;99395.93;1685730;85;21934;-73
2022/09/29 01:30:23;;;;;;;110.42;69.47;;;;;;;10.20;76.69;99398.23;1701529;83;21003;-72
2022/09/29 01:33:04;;;;;;;98.50;59.67;;;;;;;10.19;76.85;99407.13;1679437;85;21616;-72
2022/09/29 01:35:48;;;;;;;45.17;29.60;;;;;;;10.19;76.82;99421.64;1679975;85;21596;-72
2022/09/29 01:38:52;;;;;;;22.05;14.30;;;;;;;10.13;76.64;99432.75;1711956;82;21024;-71
2022/09/29 01:42:01;;;;;;;17.40;10.53;;;;;;;10.05;76.64;99430.02;1673211;85;23113;-72
2022/09/29 01:44:48;;;;;;;13.60;9.20;;;;;;;9.98;76.79;99435.50;1664769;85;21086;-72
2022/09/29 01:47:30;;;;;;;10.70;7.60;;;;;;;9.95;76.80;99435.79;1683120;84;21478;-71
2022/09/29 01:50:04;;;;;;;10.48;7.20;;;;;;;9.91;76.88;99431.75;1680574;84;21014;-72
2022/09/29 01:52:33;;;;;;;33.48;24.10;;;;;;;9.87;76.90;99435.66;1681455;84;21541;-72
2022/09/29 01:55:12;;;;;;;27.82;21.80;;;;;;;9.81;76.96;99431.76;1683495;84;21824;-72
2022/09/29 01:57:56;;;;;;;16.27;12.40;;;;;;;9.78;76.94;99428.58;1675597;85;21597;-72
2022/09/29 02:00:30;;;;;;;11.97;9.00;;;;;;;9.74;76.94;99427.52;1677855;84;20995;-72
2022/09/29 02:03:22;;;;;;;9.25;7.83;;;;;;;9.69;76.95;99432.39;1663079;85;21139;-72
2022/09/29 02:05:55;;;;;;;12.28;9.58;;;;;;;9.64;76.79;99430.64;1676533;84;21011;-71
2022/09/29 02:08:37;;;;;;;15.98;12.95;;;;;;;9.57;76.60;99434.83;1671681;83;21864;-78
2022/09/29 02:11:10;;;;;;;18.52;13.22;;;;;;;9.51;76.48;99436.69;1666561;85;21017;-72
2022/09/29 02:13:49;;;;;;;22.05;16.00;;;;;;;9.45;76.50;99442.50;1640181;85;21468;-74
2022/09/29 02:16:22;;;;;;;22.37;15.00;;;;;;;9.40;76.44;99441.61;1682333;84;21044;-72
2022/09/29 02:18:56;;;;;;;18.82;15.68;;;;;;;9.35;76.41;99445.61;1709054;83;20957;-72
2022/09/29 02:21:23;;;;;;;22.55;16.93;;;;;;;9.33;76.39;99444.92;1677504;85;22459;-72
2022/09/29 02:23:51;;;;;;;67.35;42.17;;;;;;;9.28;76.42;99448.46;1692994;83;20961;-73
2022/09/29 02:26:17;;;;;;;33.85;24.35;;;;;;;9.27;76.59;99454.22;1677501;85;20955;-72
2022/09/29 02:28:46;;;;;;;26.70;19.50;;;;;;;9.26;76.84;99454.33;1686163;84;21003;-71
2022/09/29 02:31:13;;;;;;;23.98;16.65;;;;;;;9.26;77.03;99454.33;1692302;84;21012;-71
2022/09/29 02:33:40;;;;;;;20.17;16.27;;;;;;;9.27;77.18;99461.30;1671065;85;22217;-71
2022/09/29 02:36:43;;;;;;;30.23;24.43;;;;;;;9.31;77.33;99471.41;1678696;83;20955;-74
2022/09/29 02:40:00;;;;;;;19.85;16.70;;;;;;;9.34;77.31;99476.40;1670093;83;21039;-71
2022/09/29 02:42:35;;;;;;;13.38;10.08;;;;;;;9.34;77.11;99482.16;1630026;86;21096;-72
2022/09/29 02:45:30;;;;;;;11.85;9.05;;;;;;;9.31;76.99;99475.84;1632893;86;21120;-72
2022/09/29 02:48:47;;;;;;;11.83;9.83;;;;;;;9.26;77.04;99478.88;1662230;85;21827;-71
2022/09/29 02:51:38;;;;;;;34.67;25.20;;;;;;;9.24;77.07;99478.19;1685911;83;21000;-71
2022/09/29 02:54:22;;;;;;;32.23;23.92;;;;;;;9.20;77.14;99483.88;1675995;85;21015;-72
2022/09/29 02:57:16;;;;;;;24.02;19.15;;;;;;;9.18;77.11;99491.91;1674572;83;21520;-71
2022/09/29 03:00:08;;;;;;;23.20;14.98;;;;;;;9.13;77.08;99490.98;1677062;83;21110;-72
2022/09/29 03:02:37;;;;;;;15.63;11.40;;;;;;;9.09;77.10;99486.96;1678332;83;25238;-72
2022/09/29 03:05:13;;;;;;;12.28;10.35;;;;;;;9.08;77.28;99484.47;1679300;85;21019;-72
2022/09/29 03:07:41;;;;;;;11.38;9.80;;;;;;;9.08;77.38;99485.30;1682387;85;21122;-71
2022/09/29 03:10:09;;;;;;;12.20;8.93;;;;;;;9.08;77.58;99497.64;1679276;85;20971;-72
2022/09/29 03:12:37;;;;;;;10.20;8.33;;;;;;;9.07;77.64;99500.76;1679344;85;21031;-71
2022/09/29 03:15:05;;;;;;;9.08;7.10;;;;;;;9.08;77.86;99503.73;1680017;85;21908;-71
2022/09/29 03:17:32;;;;;;;9.88;7.67;;;;;;;9.07;78.12;99504.71;1670415;85;21080;-71
2022/09/29 03:19:59;;;;;;;11.35;7.20;;;;;;;9.09;78.30;99504.09;1662417;83;20995;-72
2022/09/29 03:22:26;;;;;;;7.53;6.72;;;;;;;9.11;78.25;99503.47;1672131;84;21072;-72
2022/09/29 03:24:53;;;;;;;8.88;6.60;;;;;;;9.10;78.22;99504.43;1709857;83;21019;-72
2022/09/29 03:27:19;;;;;;;10.18;6.95;;;;;;;9.06;78.13;99513.55;1693234;83;22728;-72
2022/09/29 03:29:46;;;;;;;10.98;6.72;;;;;;;9.02;78.16;99506.89;1715225;82;20948;-71
2022/09/29 03:32:12;;;;;;;8.00;6.75;;;;;;;9.03;78.16;99512.52;1678543;83;21477;-72
2022/09/29 03:34:39;;;;;;;6.92;6.20;;;;;;;9.02;78.11;99513.48;1684620;84;20963;-72
2022/09/29 03:37:05;;;;;;;9.85;7.10;;;;;;;9.02;78.08;99519.23;1673789;83;20957;-72
2022/09/29 03:39:32;;;;;;;12.20;8.28;;;;;;;8.98;78.11;99519.16;1683962;83;21929;-72
2022/09/29 03:41:58;;;;;;;18.12;11.10;;;;;;;8.95;78.26;99512.33;1685468;85;21002;-72
2022/09/29 03:44:25;;;;;;;22.87;12.37;;;;;;;8.95;78.43;99512.33;1682525;85;21080;-72
2022/09/29 03:46:51;;;;;;;20.68;12.82;;;;;;;8.96;78.41;99514.00;1680356;84;21063;-72
2022/09/29 03:49:18;;;;;;;21.37;12.70;;;;;;;8.97;78.43;99517.47;1669826;84;21081;-72
2022/09/29 03:51:44;;;;;;;17.45;12.03;;;;;;;8.97;78.63;99514.34;1666112;85;21818;-71
2022/09/29 03:54:11;;;;;;;15.75;10.38;;;;;;;8.98;78.75;99517.36;1669791;85;21584;-71
2022/09/29 03:56:39;;;;;;;12.90;9.78;;;;;;;9.01;78.86;99518.41;1678634;85;21468;-71
2022/09/29 03:59:09;;;;;;;16.45;11.18;;;;;;;9.03;78.92;99516.95;1696874;82;21056;-71
2022/09/29 04:01:36;;;;;;;16.80;10.63;;;;;;;9.04;78.92;99518.13;1672190;83;21087;-71
2022/09/29 04:04:05;;;;;;;28.23;14.15;;;;;;;9.07;78.99;99519.66;1636714;85;21991;-71
2022/09/29 04:06:32;;;;;;;24.23;14.15;;;;;;;9.11;78.98;99531.61;1658662;86;21411;-71
2022/09/29 04:08:59;;;;;;;17.75;11.38;;;;;;;9.12;78.86;99526.20;1663708;84;21004;-71
2022/09/29 04:11:26;;;;;;;19.32;9.38;;;;;;;9.14;78.85;99530.02;1666194;85;20962;-71
2022/09/29 04:13:54;;;;;;;9.60;7.40;;;;;;;9.17;78.96;99531.09;1690256;83;20988;-71
2022/09/29 04:16:21;;;;;;;11.70;7.42;;;;;;;9.21;79.09;99531.64;1680254;83;21941;-71
2022/09/29 04:18:48;;;;;;;13.75;7.80;;;;;;;9.25;79.18;99535.66;1677438;83;21003;-72
2022/09/29 04:21:15;;;;;;;9.83;8.00;;;;;;;9.28;79.12;99534.10;1669062;85;21478;-71
2022/09/29 04:23:42;;;;;;;11.53;7.62;;;;;;;9.28;78.99;99539.38;1672436;85;21216;-71
2022/09/29 04:26:08;;;;;;;9.33;7.58;;;;;;;9.26;78.94;99534.20;1660685;85;21015;-72
2022/09/29 04:28:35;;;;;;;9.23;7.05;;;;;;;9.28;78.93;99538.05;1663508;85;22284;-76
2022/09/29 04:31:02;;;;;;;8.23;6.25;;;;;;;9.29;78.98;99543.19;1663552;85;21081;-72
2022/09/29 04:33:28;;;;;;;8.20;6.55;;;;;;;9.31;78.96;99545.20;1659982;84;21064;-74
2022/09/29 04:35:56;;;;;;;8.25;6.70;;;;;;;9.33;78.95;99541.94;1668895;84;21004;-73
2022/09/29 04:38:23;;;;;;;8.80;6.65;;;;;;;9.35;78.95;99541.80;1667380;85;21079;-75
2022/09/29 04:40:49;;;;;;;7.40;6.22;;;;;;;9.38;79.06;99542.87;1668565;84;21922;-73
2022/09/29 04:43:16;;;;;;;9.45;7.17;;;;;;;9.43;79.17;99543.28;1663567;85;21122;-72
2022/09/29 04:45:42;;;;;;;8.75;7.22;;;;;;;9.49;79.27;99545.39;1666539;83;21570;-75
2022/09/29 04:48:09;;;;;;;8.50;7.00;;;;;;;9.56;79.44;99541.25;1707705;82;21047;-74
2022/09/29 04:50:36;;;;;;;9.80;7.33;;;;;;;9.64;79.59;99537.91;1690600;83;21110;-72
2022/09/29 04:53:03;;;;;;;8.18;7.30;;;;;;;9.72;79.78;99536.75;1678335;83;21786;-73
2022/09/29 04:55:29;;;;;;;9.08;7.08;;;;;;;9.81;79.93;99533.78;1687401;83;21077;-72
2022/09/29 04:57:56;;;;;;;10.20;6.90;;;;;;;9.88;80.07;99548.92;1676888;83;21000;-73
2022/09/29 05:00:22;;;;;;;8.25;6.80;;;;;;;9.96;80.17;99552.20;1681061;83;21133;-74
2022/09/29 05:02:49;;;;;;;8.50;7.08;;;;;;;10.03;80.35;99560.72;1678927;83;21487;-75
2022/09/29 05:05:15;;;;;;;12.15;7.08;;;;;;;10.12;80.51;99556.91;1660740;84;21945;-73
2022/09/29 05:07:44;;;;;;;8.25;6.55;;;;;;;10.20;80.66;99567.61;1671696;83;21119;-73
2022/09/29 05:10:11;;;;;;;11.45;7.28;;;;;;;10.30;80.85;99575.07;1706961;82;21082;-72
2022/09/29 05:12:38;;;;;;;10.30;6.87;;;;;;;10.38;80.97;99580.48;1688739;83;21015;-73
2022/09/29 05:15:07;;;;;;;8.48;6.75;;;;;;;10.43;81.06;99579.59;1682622;83;21077;-74
2022/09/29 05:17:33;;;;;;;7.37;6.12;;;;;;;10.49;81.21;99584.30;1692487;82;21862;-71
2022/09/29 05:20:00;;;;;;;7.72;6.80;;;;;;;10.57;81.34;99580.95;1698364;82;20992;-71
2022/09/29 05:22:26;;;;;;;6.97;5.50;;;;;;;10.65;81.49;99579.77;1691817;83;21016;-72
2022/09/29 05:24:53;;;;;;;6.30;5.65;;;;;;;10.73;81.57;99577.26;1684621;85;21035;-72
2022/09/29 05:27:23;;;;;;;7.42;5.45;;;;;;;10.81;81.65;99577.39;1702552;82;21063;-71
2022/09/29 05:29:53;;;;;;;5.90;5.20;;;;;;;10.88;81.72;99577.14;1714956;82;22214;-72
2022/09/29 05:32:21;;;;;;;6.35;4.97;;;;;;;10.99;81.83;99576.62;1697101;83;21000;-72
2022/09/29 05:34:49;;;;;;;6.72;5.45;;;;;;;11.06;81.84;99579.88;1710759;83;20992;-72
2022/09/29 05:37:17;;;;;;;6.53;5.20;;;;;;;11.15;81.87;99588.74;1711006;83;21047;-72
2022/09/29 05:39:46;;;;;;;5.75;4.95;;;;;;;11.22;81.86;99584.55;1696626;83;21066;-71
2022/09/29 05:42:13;;;;;;;10.40;4.62;;;;;;;11.30;81.81;99583.34;1689383;83;21961;-71
2022/09/29 05:44:43;;;;;;;7.08;4.92;;;;;;;11.36;81.61;99582.74;1689404;83;21085;-72
2022/09/29 05:47:11;;;;;;;7.90;4.80;;;;;;;11.42;81.49;99586.13;1683361;84;22131;-72
2022/09/29 05:49:39;;;;;;;6.58;5.00;;;;;;;11.50;81.32;99586.73;1679187;83;21066;-71
2022/09/29 05:52:11;;;;;;;5.15;4.60;;;;;;;11.54;81.16;99585.94;1683883;84;21550;-71
2022/09/29 05:54:41;;;;;;;6.03;5.40;;;;;;;11.58;81.01;99584.65;1685789;84;21864;-73
2022/09/29 05:57:08;;;;;;;5.83;5.20;;;;;;;11.65;80.92;99589.70;1682269;84;20973;-71
2022/09/29 05:59:36;;;;;;;7.15;5.00;;;;;;;11.70;80.77;99591.42;1685630;85;21106;-72
2022/09/29 06:02:03;;;;;;;8.65;5.28;;;;;;;11.75;80.66;99593.12;1685307;85;21070;-72
2022/09/29 06:04:30;;;;;;;6.85;5.42;;;;;;;11.81;80.62;99595.70;1684678;84;21035;-72
2022/09/29 06:06:57;;;;;;;11.38;5.90;;;;;;;11.89;80.61;99597.13;1682660;83;22311;-72
2022/09/29 06:09:25;;;;;;;7.33;5.67;;;;;;;11.97;80.50;99590.11;1686704;83;21008;-73
2022/09/29 06:11:53;;;;;;;6.72;6.03;;;;;;;12.08;80.45;99589.55;1692526;83;21016;-72
2022/09/29 06:14:21;;;;;;;9.23;6.03;;;;;;;12.20;80.32;99601.56;1685374;84;21159;-72
2022/09/29 06:16:49;;;;;;;6.80;6.10;;;;;;;12.34;80.33;99593.08;1685529;84;21051;-73
2022/09/29 06:19:16;;;;;;;6.87;6.28;;;;;;;12.51;80.33;99594.06;1679145;85;21917;-73
2022/09/29 06:21:43;;;;;;;6.85;6.20;;;;;;;12.64;80.08;99593.16;1671862;85;21513;-72
2022/09/29 06:24:10;;;;;;;7.33;5.90;;;;;;;12.77;79.86;99586.16;1669960;85;20968;-72
2022/09/29 06:26:37;;;;;;;7.03;5.20;;;;;;;12.88;79.54;99592.52;1680853;83;20964;-73
2022/09/29 06:29:05;;;;;;;5.08;4.45;;;;;;;12.99;79.21;99589.60;1679905;83;21007;-72
2022/09/29 06:31:34;;;;;;;5.80;4.47;;;;;;;13.10;78.89;99588.01;1683605;83;23223;-73
2022/09/29 06:34:02;;;;;;;4.67;4.20;;;;;;;13.22;78.44;99584.65;1682216;83;21097;-72
2022/09/29 06:39:27;;;;;;;5.25;4.20;;;;;;;13.48;77.95;99583.75;1682296;84;21018;-73
2022/09/29 06:41:55;;;;;;;4.92;3.60;;;;;;;13.57;77.25;99590.25;1668114;83;21050;-73
2022/09/29 06:44:25;;;;;;;5.20;4.40;;;;;;;13.64;76.62;99595.27;1677464;83;21844;-75
2022/09/29 06:46:53;;;;;;;7.55;4.60;;;;;;;13.72;76.17;99593.97;1676860;83;20971;-72
2022/09/29 06:49:20;;;;;;;6.25;4.15;;;;;;;13.83;75.90;99595.99;1675454;83;21379;-72
2022/09/29 06:51:47;;;;;;;5.08;4.37;;;;;;;13.90;75.24;99598.34;1684836;84;21446;-73
2022/09/29 06:54:16;;;;;;;6.60;4.62;;;;;;;13.96;74.95;99605.64;1679332;85;20924;-72
2022/09/29 06:56:49;;;;;;;6.55;3.92;;;;;;;14.03;74.69;99602.68;1663461;85;21874;-72
2022/09/29 06:59:17;;;;;;;7.10;4.30;;;;;;;14.10;74.38;99602.38;1670551;84;21055;-71
2022/09/29 07:01:50;;;;;;;6.92;4.60;;;;;;;14.18;74.18;99602.86;1669884;84;21053;-71
2022/09/29 07:04:20;;;;;;;5.55;4.30;;;;;;;14.26;73.89;99607.69;1666973;84;21406;-71
2022/09/29 07:06:47;;;;;;;4.97;4.47;;;;;;;14.35;73.62;99611.69;1678676;85;21047;-71
2022/09/29 07:09:25;;;;;;;7.87;4.72;;;;;;;14.44;73.37;99608.05;1682265;85;21946;-70
2022/09/29 07:11:56;;;;;;;6.25;4.75;;;;;;;14.52;72.94;99612.06;1680616;85;21444;-71
2022/09/29 07:14:24;;;;;;;6.22;4.55;;;;;;;14.55;72.66;99602.42;1675254;85;21054;-72
2022/09/29 07:16:51;;;;;;;6.05;4.85;;;;;;;14.59;72.31;99605.93;1677016;83;21102;-70
2022/09/29 07:19:19;;;;;;;6.47;5.05;;;;;;;14.58;72.07;99602.12;1684416;83;21451;-71
2022/09/29 07:21:46;;;;;;;5.83;5.17;;;;;;;14.57;71.70;99607.07;1673158;84;21863;-71
2022/09/29 07:24:14;;;;;;;5.55;4.50;;;;;;;14.52;71.48;99617.38;1671750;83;21020;-70
2022/09/29 07:26:41;;;;;;;8.70;4.92;;;;;;;14.54;71.88;99620.70;1670181;85;21015;-71
2022/09/29 07:29:08;;;;;;;5.35;4.78;;;;;;;14.62;71.92;99626.52;1678420;83;21030;-70
2022/09/29 07:31:34;;;;;;;4.80;4.30;;;;;;;14.63;71.84;99630.34;1678717;84;21510;-70
2022/09/29 07:34:01;;;;;;;5.62;4.62;;;;;;;14.65;71.59;99623.52;1682234;85;21942;-72
2022/09/29 07:36:28;;;;;;;7.17;5.03;;;;;;;14.63;71.55;99625.02;1678370;85;21060;-72
2022/09/29 07:38:55;;;;;;;5.08;4.58;;;;;;;14.64;71.58;99625.35;1669126;83;21068;-70
2022/09/29 07:41:21;;;;;;;6.17;4.33;;;;;;;14.67;71.53;99632.16;1683469;83;20964;-71
2022/09/29 07:43:48;;;;;;;5.92;5.05;;;;;;;14.71;71.54;99635.66;1675757;83;21074;-71
2022/09/29 07:46:15;;;;;;;5.92;4.47;;;;;;;14.77;71.70;99646.97;1664587;85;22570;-70
2022/09/29 07:48:41;;;;;;;6.17;4.55;;;;;;;14.84;71.62;99637.30;1682830;85;21341;-71
2022/09/29 07:51:12;;;;;;;5.50;4.70;;;;;;;14.95;71.71;99632.14;1683766;85;32878;-71
2022/09/29 07:53:39;;;;;;;4.95;4.40;;;;;;;15.09;71.47;99628.81;1679799;84;21464;-70
2022/09/29 07:56:08;;;;;;;4.87;4.30;;;;;;;15.18;70.89;99628.30;1636552;87;21036;-71
2022/09/29 07:58:36;;;;;;;5.60;4.45;;;;;;;15.23;70.46;99629.94;1637746;87;21859;-71
2022/09/29 08:01:05;;;;;;;6.20;4.30;;;;;;;15.32;70.22;99630.75;1634738;86;21519;-71
2022/09/29 08:03:32;;;;;;;12.47;5.30;;;;;;;15.42;70.20;99628.22;1638438;85;21064;-72
2022/09/29 08:05:59;;;;;;;7.40;5.03;;;;;;;15.52;70.04;99625.36;1621100;86;21472;-73
2022/09/29 08:08:27;;;;;;;8.75;5.55;;;;;;;15.68;69.48;99630.67;1611241;86;21067;-72
2022/09/29 08:11:07;;;;;;;9.98;6.50;;;;;;;15.78;68.91;99635.78;1612597;86;21860;-71
2022/09/29 08:13:35;;;;;;;12.58;6.92;;;;;;;15.85;68.57;99635.93;1612503;86;21047;-76
2022/09/29 08:16:04;;;;;;;19.05;9.70;;;;;;;15.91;68.53;99641.88;1635977;86;21071;-73
2022/09/29 08:18:32;;;;;;;12.73;8.75;;;;;;;16.00;68.40;99644.33;1635460;86;22108;-72
2022/09/29 08:20:58;;;;;;;12.05;9.83;;;;;;;16.09;67.92;99644.28;1636414;86;21115;-72
2022/09/29 08:23:25;;;;;;;12.20;10.15;;;;;;;16.15;67.17;99642.27;1627155;86;21928;-73
2022/09/29 08:26:04;;;;;;;14.40;10.40;;;;;;;16.13;66.66;99634.45;1647490;84;20983;-71
2022/09/29 08:28:32;;;;;;;11.97;10.18;;;;;;;16.14;66.21;99634.78;1665096;84;21518;-71
2022/09/29 08:31:20;;;;;;;8.90;7.70;;;;;;;16.15;66.29;99628.94;1691509;83;21023;-72
2022/09/29 08:33:44;;;;;;;10.05;8.28;;;;;;;16.21;65.87;99634.41;1661356;83;21576;-71
2022/09/29 08:36:13;;;;;;;10.08;8.58;;;;;;;16.25;64.75;99634.87;1676793;83;21846;-71
2022/09/29 08:38:43;;;;;;;9.83;8.30;;;;;;;16.31;64.83;99635.01;1676495;83;21468;-79
2022/09/29 08:41:19;;;;;;;22.65;9.30;;;;;;;16.36;64.13;99633.13;1686073;83;21060;-71
2022/09/29 08:43:46;;;;;;;9.93;5.60;;;;;;;16.33;63.97;99629.50;1685767;83;21081;-73
2022/09/29 08:46:30;;;;;;;7.10;5.00;;;;;;;16.31;63.14;99631.02;1701728;82;21187;-73
2022/09/29 08:48:57;;;;;;;7.00;5.42;;;;;;;16.25;62.39;99629.55;1682992;83;23014;-76
2022/09/29 08:51:38;;;;;;;28.45;5.87;;;;;;;16.21;61.94;99629.08;1679290;85;21238;-74
2022/09/29 08:54:13;;;;;;;7.05;5.20;;;;;;;16.13;62.36;99626.97;1682988;83;21046;-72
2022/09/29 08:56:41;;;;;;;12.35;5.72;;;;;;;16.19;63.39;99627.06;1679701;83;21418;-72
2022/09/29 08:59:10;;;;;;;5.72;5.12;;;;;;;16.24;63.37;99622.05;1679879;84;21033;-73
2022/09/29 09:01:54;;;;;;;6.10;5.50;;;;;;;16.12;63.39;99627.47;1678668;84;21984;-73
2022/09/29 09:04:56;;;;;;;5.28;4.78;;;;;;;16.09;64.38;99623.80;1671976;83;21544;-73
2022/09/29 09:08:07;;;;;;;5.87;5.28;;;;;;;16.16;64.51;99633.27;1678649;83;21059;-71
2022/09/29 09:10:46;;;;;;;6.40;5.10;;;;;;;16.26;65.00;99632.03;1690251;83;21485;-73
2022/09/29 09:13:30;;;;;;;7.05;4.97;;;;;;;16.44;65.08;99630.92;1676073;83;21056;-72
2022/09/29 09:16:10;;;;;;;5.17;4.67;;;;;;;16.65;65.54;99628.41;1675833;83;21862;-71
2022/09/29 09:19:26;;;;;;;6.53;4.37;;;;;;;16.89;64.75;99630.09;1677761;83;21086;-72
2022/09/29 09:22:01;;;;;;;5.25;4.53;;;;;;;16.98;63.50;99639.65;1677521;83;21101;-72
2022/09/29 09:24:37;;;;;;;5.05;3.62;;;;;;;17.02;62.90;99628.95;1675639;83;21032;-71
2022/09/29 09:27:03;;;;;;;7.60;3.77;;;;;;;17.07;62.34;99632.41;1681676;83;21050;-73
2022/09/29 09:29:37;;;;;;;5.72;3.85;;;;;;;17.17;62.46;99635.13;1677229;83;22060;-72
2022/09/29 09:32:10;;;;;;;5.05;4.00;;;;;;;17.36;62.46;99634.27;1680386;83;28870;-74
2022/09/29 09:35:03;;;;;;;5.08;3.87;;;;;;;17.54;61.47;99632.58;1679887;83;21075;-70
2022/09/29 09:37:38;;;;;;;6.42;3.87;;;;;;;17.65;60.76;99632.10;1679045;85;21076;-71
2022/09/29 09:40:23;;;;;;;5.10;4.08;;;;;;;17.83;60.83;99624.56;1678408;83;21100;-71
2022/09/29 09:42:55;;;;;;;3.90;3.30;;;;;;;17.96;59.49;99624.74;1677001;85;22534;-73
2022/09/29 09:45:32;;;;;;;3.70;3.12;;;;;;;17.99;58.94;99628.88;1675785;83;21495;-72
2022/09/29 09:48:16;;;;;;;3.67;3.37;;;;;;;18.02;57.37;99632.50;1676413;83;21080;-71
2022/09/29 09:50:43;;;;;;;3.70;3.35;;;;;;;17.98;57.14;99634.73;1669121;84;21054;-72
2022/09/29 09:53:22;;;;;;;4.15;3.42;;;;;;;17.93;56.96;99637.63;1657071;85;21487;-71
2022/09/29 09:56:06;;;;;;;3.42;3.12;;;;;;;17.86;56.76;99636.74;1651861;86;21838;-71
2022/09/29 09:58:51;;;;;;;6.90;3.87;;;;;;;17.81;56.91;99632.45;1667760;85;21051;-71
2022/09/29 10:01:17;;;;;;;4.97;3.70;;;;;;;17.80;56.80;99632.96;1666110;84;21572;-70
2022/09/29 10:03:44;;;;;;;6.03;4.08;;;;;;;17.78;57.77;99639.00;1640808;85;21124;-73
2022/09/29 10:06:11;;;;;;;7.35;4.15;;;;;;;17.83;57.79;99641.10;1664841;85;21043;-72
2022/09/29 10:08:41;;;;;;;3.98;3.67;;;;;;;17.94;58.82;99633.43;1660175;86;22550;-68
2022/09/29 10:11:27;;;;;;;4.40;3.98;;;;;;;18.16;59.23;99645.02;1625679;85;21035;-72
2022/09/29 10:14:11;;;;;;;5.55;4.20;;;;;;;18.35;58.92;99643.58;1664752;84;21098;-70
2022/09/29 10:16:58;;;;;;;4.53;4.12;;;;;;;18.45;58.13;99645.42;1664078;85;21003;-69
2022/09/29 10:19:54;;;;;;;5.92;4.50;;;;;;;18.34;56.51;99640.59;1668006;85;21004;-70
2022/09/29 10:22:20;;;;;;;6.05;4.95;;;;;;;18.14;56.29;99643.52;1655031;85;21760;-73
2022/09/29 10:24:47;;;;;;;8.98;5.85;;;;;;;18.00;56.88;99643.89;1652153;84;21119;-70
2022/09/29 10:27:18;;;;;;;6.92;6.15;;;;;;;17.94;57.13;99642.78;1644882;85;21319;-71
2022/09/29 10:29:49;;;;;;;8.05;7.10;;;;;;;17.89;57.63;99633.69;1626034;85;21039;-69
2022/09/29 10:32:36;;;;;;;8.08;7.33;;;;;;;17.90;58.31;99632.67;1680474;84;21054;-70
2022/09/29 10:35:10;;;;;;;10.65;7.97;;;;;;;18.01;58.79;99626.84;1680469;85;22254;-70
2022/09/29 10:37:37;;;;;;;;;;;;;;;18.23;59.28;99629.86;1675958;84;20991;-70
2022/09/29 10:40:13;;;;;;;8.83;7.92;;;;;;;18.44;58.37;99623.72;1666352;85;20183;-70
2022/09/29 10:42:42;;;;;;;10.55;8.53;;;;;;;18.51;58.18;99617.08;1664506;84;20983;-70
2022/09/29 10:45:27;;;;;;;71.50;14.07;;;;;;;18.54;57.99;99619.39;1667009;84;21440;-70
2022/09/29 10:48:03;;;;;;;13.22;9.30;;;;;;;18.55;58.41;99617.03;1666348;84;22559;-70
2022/09/29 10:50:39;;;;;;;10.38;9.33;;;;;;;18.58;58.56;99612.11;1672898;83;21508;-70
2022/09/29 10:53:23;;;;;;;9.25;8.35;;;;;;;18.64;58.85;99615.88;1656449;86;21022;-70
2022/09/29 10:55:52;;;;;;;10.40;9.00;;;;;;;18.62;59.03;99616.56;1670384;84;21187;-70
2022/09/29 10:58:30;;;;;;;10.75;8.40;;;;;;;18.55;59.01;99613.84;1686517;85;20959;-70
2022/09/29 11:01:12;;;;;;;9.15;8.25;;;;;;;18.39;58.93;99614.09;1677082;83;21896;-70
2022/09/29 11:03:50;;;;;;;9.50;8.30;;;;;;;18.21;59.36;99617.19;1684537;85;20966;-69
2022/09/29 11:06:16;;;;;;;8.88;8.08;;;;;;;18.04;60.00;99609.08;1664548;83;21475;-69
2022/09/29 11:09:04;;;;;;;9.03;8.13;;;;;;;17.99;61.17;99612.33;1614702;85;21120;-69
2022/09/29 11:11:36;;;;;;;9.78;7.60;;;;;;;18.08;61.57;99610.89;1698709;82;21065;-69
2022/09/29 11:14:02;;;;;;;8.95;7.55;;;;;;;18.18;61.62;99616.75;1661796;83;21957;-70
2022/09/29 11:16:34;;;;;;;9.58;7.78;;;;;;;18.27;61.89;99616.45;1683736;83;21090;-70
2022/09/29 11:19:10;;;;;;;8.43;7.62;;;;;;;18.47;62.42;99621.16;1660355;85;20976;-74
2022/09/29 11:22:11;;;;;;;8.25;7.45;;;;;;;18.69;61.85;99624.68;1673500;83;20983;-70
2022/09/29 11:25:08;;;;;;;9.30;7.72;;;;;;;18.80;61.64;99622.82;1684362;83;20981;-70
2022/09/29 11:27:52;;;;;;;10.63;8.03;;;;;;;18.98;61.60;99620.50;1659379;85;21870;-69
2022/09/29 11:30:26;;;;;;;8.58;7.78;;;;;;;19.14;60.95;99616.71;1671605;83;20988;-70
2022/09/29 11:33:21;;;;;;;10.75;7.03;;;;;;;19.11;60.44;99611.76;1640623;85;21078;-70
2022/09/29 11:35:57;;;;;;;8.55;7.20;;;;;;;19.08;60.88;99608.94;1675093;85;20983;-71
2022/09/29 11:38:47;;;;;;;7.83;6.90;;;;;;;19.16;60.80;99605.29;1659034;85;21027;-71
2022/09/29 11:41:47;;;;;;;7.85;7.05;;;;;;;19.14;60.66;99610.02;1672948;83;21867;-70
2022/09/29 11:44:54;;;;;;;8.68;7.37;;;;;;;19.13;60.97;99607.85;1676880;83;21014;-70
2022/09/29 11:47:58;;;;;;;8.70;7.28;;;;;;;19.20;61.06;99621.77;1679576;83;21564;-70
2022/09/29 11:50:48;;;;;;;8.88;7.75;;;;;;;19.25;60.86;99613.48;1661312;85;27114;-69
2022/09/29 11:53:56;;;;;;;9.38;8.03;;;;;;;19.38;61.19;99620.25;1653050;83;21084;-69
2022/09/29 11:56:37;;;;;;;9.35;8.33;;;;;;;19.65;61.88;99623.11;1694366;84;21983;-69
2022/09/29 11:59:22;;;;;;;9.40;8.35;;;;;;;20.12;61.67;99608.03;1693155;83;21060;-70
2022/09/29 12:02:12;;;;;;;10.63;9.53;;;;;;;20.39;59.50;99609.75;1695526;84;20993;-69
2022/09/29 12:04:53;;;;;;;11.08;10.00;;;;;;;20.35;58.60;99609.83;1680578;83;21029;-70